Time;durP1;ratioP1;P1;durP2;ratioP2;P2;SDS_P1;SDS_P2;PMS_P1;PMS_P2;Temp;Humidity;BMP_temperature;BMP_pressure;BME280_temperature;BME280_humidity;BME280_pressure;Samples;Min_cycle;Max_cycle;Signal;HPM_P1;HPM_P2
2021/05/20 00:02:16;;;;;;;26.77;22.40;;;8.20;98.30;;;;;;5053680;28;20044;-81
2021/05/20 00:04:43;;;;;;;23.73;21.23;;;8.30;98.40;;;;;;5072042;28;20055;-81
2021/05/20 00:07:09;;;;;;;25.70;22.85;;;8.20;98.60;;;;;;5074061;28;20127;-81
2021/05/20 00:09:35;;;;;;;25.83;22.80;;;8.20;98.50;;;;;;5055710;28;20052;-80
2021/05/20 00:12:01;;;;;;;27.67;23.52;;;8.20;98.50;;;;;;5075707;28;20404;-80
2021/05/20 00:14:27;;;;;;;25.73;22.58;;;8.20;98.60;;;;;;5074043;28;20446;-80
2021/05/20 00:16:56;;;;;;;27.50;24.00;;;8.20;98.70;;;;;;5073572;28;20048;-81
2021/05/20 00:19:22;;;;;;;31.70;26.00;;;8.20;98.50;;;;;;5072931;28;20044;-81
2021/05/20 00:21:49;;;;;;;29.98;25.33;;;8.20;98.80;;;;;;5071416;28;20139;-81
2021/05/20 00:24:15;;;;;;;31.55;26.45;;;8.30;99.30;;;;;;5088333;28;20052;-81
2021/05/20 00:26:41;;;;;;;30.45;24.95;;;8.20;99.20;;;;;;5073558;28;20048;-81
2021/05/20 00:29:07;;;;;;;26.83;22.50;;;8.20;99.30;;;;;;5072580;28;20044;-80
2021/05/20 00:31:33;;;;;;;29.48;24.25;;;8.30;99.40;;;;;;5055040;28;20746;-81
2021/05/20 00:33:59;;;;;;;27.88;23.48;;;8.30;99.30;;;;;;5070600;28;20056;-80
2021/05/20 00:36:25;;;;;;;27.30;22.67;;;8.20;99.40;;;;;;5082575;28;20052;-80
2021/05/20 00:38:50;;;;;;;25.00;22.15;;;8.40;99.50;;;;;;5069012;28;20056;-82
2021/05/20 00:41:16;;;;;;;26.42;22.08;;;8.20;99.40;;;;;;5054746;28;20057;-81
2021/05/20 00:43:42;;;;;;;30.90;24.48;;;8.20;99.40;;;;;;5072184;28;20484;-81
2021/05/20 00:46:08;;;;;;;35.95;27.73;;;8.30;99.30;;;;;;5053668;28;20067;-81
2021/05/20 00:48:34;;;;;;;27.75;23.70;;;8.20;99.30;;;;;;5071989;28;20412;-82
2021/05/20 00:51:01;;;;;;;15.90;14.30;;;8.20;99.60;;;;;;5069438;28;20424;-82
2021/05/20 00:53:27;;;;;;;14.65;13.23;;;8.20;99.40;;;;;;5063664;28;20044;-80
2021/05/20 00:55:54;;;;;;;14.75;13.27;;;8.10;99.10;;;;;;5056542;28;20052;-81
2021/05/20 00:58:21;;;;;;;17.25;15.38;;;8.10;98.90;;;;;;5072282;28;20052;-81
2021/05/20 01:00:55;;;;;;;18.48;16.52;;;7.90;98.90;;;;;;5072693;28;20049;-81
2021/05/20 01:03:24;;;;;;;18.00;16.10;;;7.90;99.00;;;;;;5054155;28;20052;-81
2021/05/20 01:05:53;;;;;;;20.05;17.95;;;7.90;99.00;;;;;;5072894;28;20863;-81
2021/05/20 01:08:21;;;;;;;25.02;21.38;;;7.90;98.80;;;;;;5054427;28;20056;-80
2021/05/20 01:10:47;;;;;;;27.67;22.35;;;7.90;98.90;;;;;;5055871;28;20041;-81
2021/05/20 01:13:13;;;;;;;24.38;21.27;;;7.90;99.00;;;;;;5071070;28;20094;-84
2021/05/20 01:15:39;;;;;;;21.13;18.88;;;7.90;99.20;;;;;;5058715;28;20048;-81
2021/05/20 01:18:06;;;;;;;23.13;20.52;;;7.90;99.20;;;;;;5078670;28;20095;-82
2021/05/20 01:20:36;;;;;;;25.33;21.95;;;7.90;99.20;;;;;;5052109;28;20048;-82
2021/05/20 01:23:06;;;;;;;26.75;22.05;;;7.90;99.20;;;;;;5052573;28;20048;-81
2021/05/20 01:25:33;;;;;;;25.98;21.63;;;7.90;98.80;;;;;;5053046;28;20056;-81
2021/05/20 01:28:03;;;;;;;21.92;18.13;;;7.90;98.70;;;;;;5070751;28;20036;-80
2021/05/20 01:30:33;;;;;;;20.73;17.27;;;7.80;98.60;;;;;;5054559;28;20447;-80
2021/05/20 01:32:59;;;;;;;19.50;17.02;;;7.80;98.50;;;;;;5073334;28;20400;-80
2021/05/20 01:35:25;;;;;;;19.23;17.17;;;7.80;98.60;;;;;;5070796;28;20127;-79
2021/05/20 01:38:05;;;;;;;17.75;15.63;;;7.80;98.40;;;;;;5075042;28;20056;-82
2021/05/20 01:40:31;;;;;;;19.42;15.55;;;7.70;98.40;;;;;;5058174;28;20106;-82
2021/05/20 01:42:57;;;;;;;18.35;14.90;;;7.60;98.10;;;;;;5073162;28;20053;-80
2021/05/20 01:45:23;;;;;;;17.98;15.38;;;7.70;98.00;;;;;;5073592;28;20044;-81
2021/05/20 01:47:49;;;;;;;19.50;16.77;;;7.50;97.80;;;;;;5072018;28;20051;-81
2021/05/20 01:50:15;;;;;;;18.00;15.80;;;7.40;97.80;;;;;;5073301;28;20056;-81
2021/05/20 01:52:41;;;;;;;19.13;17.05;;;7.40;98.00;;;;;;5070147;28;20089;-81
2021/05/20 01:55:08;;;;;;;18.15;15.90;;;7.40;98.00;;;;;;5072027;28;20051;-81
2021/05/20 01:57:33;;;;;;;23.58;19.02;;;7.40;98.10;;;;;;5052588;28;20049;-81
2021/05/20 02:00:01;;;;;;;24.73;20.15;;;7.50;98.10;;;;;;5052758;28;20427;-80
2021/05/20 02:02:27;;;;;;;31.92;25.10;;;7.40;98.20;;;;;;5052353;28;20045;-82
2021/05/20 02:04:53;;;;;;;24.90;20.20;;;7.40;98.40;;;;;;5071489;28;20056;-85
2021/05/20 02:07:19;;;;;;;21.88;18.67;;;7.40;98.70;;;;;;5052402;28;20048;-82
2021/05/20 02:09:45;;;;;;;31.00;21.67;;;7.40;98.60;;;;;;5070158;28;20079;-82
2021/05/20 02:12:12;;;;;;;30.83;22.40;;;7.40;98.70;;;;;;5071555;28;20114;-81
2021/05/20 02:14:38;;;;;;;41.95;29.20;;;7.30;98.60;;;;;;5060275;28;20480;-81
2021/05/20 02:17:04;;;;;;;71.05;42.05;;;7.40;98.60;;;;;;5065307;28;20041;-82
2021/05/20 02:19:30;;;;;;;38.97;28.73;;;7.40;99.00;;;;;;5054369;28;20106;-82
2021/05/20 02:21:56;;;;;;;130.73;27.25;;;7.40;99.20;;;;;;5067426;28;20052;-81
2021/05/20 02:24:21;;;;;;;107.60;23.00;;;7.50;99.70;;;;;;5073895;28;20068;-82
2021/05/20 02:26:47;;;;;;;320.40;25.63;;;7.40;99.60;;;;;;5085257;28;20037;-84
2021/05/20 02:29:13;;;;;;;388.30;27.98;;;7.40;99.80;;;;;;5051288;28;20048;-82
2021/05/20 02:31:39;;;;;;;134.43;22.55;;;7.40;99.90;;;;;;5076972;28;20049;-82
2021/05/20 02:34:05;;;;;;;257.73;27.17;;;7.40;99.90;;;;;;5070477;28;20382;-83
2021/05/20 02:36:31;;;;;;;281.63;25.52;;;7.40;99.90;;;;;;5070914;28;20484;-81
2021/05/20 02:38:57;;;;;;;464.70;32.85;;;7.40;99.90;;;;;;5071746;28;20553;-81
2021/05/20 02:41:23;;;;;;;121.93;20.63;;;7.40;99.90;;;;;;5071784;28;20131;-82
2021/05/20 02:43:48;;;;;;;394.30;25.58;;;7.40;99.90;;;;;;5069752;28;20106;-82
2021/05/20 02:46:14;;;;;;;409.42;27.25;;;7.40;99.90;;;;;;5068338;28;20436;-82
2021/05/20 02:48:40;;;;;;;325.70;29.75;;;7.30;99.90;;;;;;5050122;28;20041;-82
2021/05/20 02:51:06;;;;;;;313.30;38.03;;;7.30;99.90;;;;;;5070766;28;20118;-82
2021/05/20 02:53:33;;;;;;;279.85;29.20;;;7.20;99.90;;;;;;5054267;28;20427;-82
2021/05/20 02:55:58;;;;;;;339.05;39.88;;;7.20;99.90;;;;;;5068229;28;20048;-81
2021/05/20 02:58:26;;;;;;;184.40;24.35;;;7.10;99.90;;;;;;5068733;28;20048;-80
2021/05/20 03:00:52;;;;;;;307.33;25.02;;;7.10;99.90;;;;;;5052236;28;20511;-84
2021/05/20 03:03:18;;;;;;;283.33;29.25;;;7.10;99.90;;;;;;5069102;28;20052;-86
2021/05/20 03:05:44;;;;;;;219.95;21.45;;;7.10;99.90;;;;;;5069921;28;20041;-81
2021/05/20 03:08:11;;;;;;;271.73;22.13;;;7.20;99.90;;;;;;5050848;28;20056;-82
2021/05/20 03:10:38;;;;;;;254.93;21.65;;;7.10;99.90;;;;;;5067981;28;20059;-82
2021/05/20 03:13:03;;;;;;;185.30;20.38;;;7.00;99.90;;;;;;5069407;28;20051;-81
2021/05/20 03:15:30;;;;;;;189.18;22.00;;;7.00;99.90;;;;;;5069118;28;20040;-81
2021/05/20 03:17:55;;;;;;;199.55;24.15;;;7.00;99.90;;;;;;5065883;28;20480;-84
2021/05/20 03:20:21;;;;;;;163.07;21.60;;;7.20;99.90;;;;;;5052022;28;20052;-85
2021/05/20 03:22:47;;;;;;;239.20;32.47;;;7.00;99.90;;;;;;5069109;28;20120;-82
2021/05/20 03:25:15;;;;;;;197.63;34.92;;;7.10;99.90;;;;;;5052755;28;20048;-82
2021/05/20 03:27:41;;;;;;;135.02;32.92;;;7.00;99.90;;;;;;5068704;28;20618;-82
2021/05/20 03:30:08;;;;;;;84.57;27.27;;;7.10;99.90;;;;;;5060704;28;20059;-81
2021/05/20 03:32:34;;;;;;;39.95;21.67;;;7.10;99.90;;;;;;5068462;28;20434;-81
2021/05/20 03:34:59;;;;;;;63.97;26.02;;;7.20;99.90;;;;;;5081543;28;20050;-82
2021/05/20 03:37:25;;;;;;;76.97;38.33;;;7.20;99.90;;;;;;5077132;28;20472;-81
2021/05/20 03:39:51;;;;;;;48.45;29.27;;;7.20;99.90;;;;;;5051733;28;20048;-82
2021/05/20 03:42:17;;;;;;;77.28;31.83;;;7.30;99.90;;;;;;5051713;28;20103;-84
2021/05/20 03:44:43;;;;;;;61.58;30.98;;;7.30;99.90;;;;;;5055295;28;20066;-85
2021/05/20 03:47:08;;;;;;;65.85;22.00;;;7.30;99.90;;;;;;5071589;28;20477;-83
2021/05/20 03:49:34;;;;;;;71.97;22.08;;;7.40;99.90;;;;;;5069699;28;20481;-83
2021/05/20 03:52:00;;;;;;;80.47;22.40;;;7.30;99.90;;;;;;5067549;28;20052;-81
2021/05/20 03:54:26;;;;;;;32.53;20.50;;;7.40;99.90;;;;;;5050722;28;20045;-83
2021/05/20 03:56:53;;;;;;;57.80;21.98;;;7.30;99.90;;;;;;5070577;28;20081;-85
2021/05/20 03:59:18;;;;;;;25.63;21.50;;;7.30;99.90;;;;;;5051239;28;20075;-82
2021/05/20 04:01:44;;;;;;;21.55;19.35;;;7.50;99.90;;;;;;5068072;28;20056;-82
2021/05/20 04:04:13;;;;;;;18.80;16.90;;;7.70;99.90;;;;;;5069133;28;20044;-82
2021/05/20 04:06:39;;;;;;;17.70;15.82;;;7.40;99.90;;;;;;5068526;28;20519;-82
2021/05/20 04:09:05;;;;;;;15.32;13.75;;;7.40;99.90;;;;;;5069154;28;20060;-81
2021/05/20 04:11:31;;;;;;;18.13;16.10;;;7.40;99.90;;;;;;5072458;28;20053;-85
2021/05/20 04:13:57;;;;;;;16.88;15.15;;;7.40;99.90;;;;;;5068110;28;20117;-84
2021/05/20 04:16:25;;;;;;;17.75;14.93;;;7.50;99.90;;;;;;5069382;28;20056;-85
2021/05/20 04:18:51;;;;;;;14.57;12.93;;;7.40;99.90;;;;;;5068161;28;20106;-83
2021/05/20 04:21:17;;;;;;;16.15;14.55;;;7.40;99.90;;;;;;5087176;28;20047;-82
2021/05/20 04:23:44;;;;;;;14.88;13.27;;;7.40;99.90;;;;;;5062402;28;20044;-82
2021/05/20 04:26:11;;;;;;;15.57;14.02;;;7.40;99.90;;;;;;5077297;28;20380;-82
2021/05/20 04:28:37;;;;;;;17.23;15.15;;;7.50;99.90;;;;;;5067471;28;20435;-82
2021/05/20 04:31:03;;;;;;;19.13;15.02;;;7.60;99.90;;;;;;5085710;28;20046;-81
2021/05/20 04:33:29;;;;;;;19.90;17.80;;;7.50;99.90;;;;;;5078091;28;20048;-82
2021/05/20 04:35:55;;;;;;;32.17;26.23;;;7.50;99.90;;;;;;5062322;28;20041;-81
2021/05/20 04:38:21;;;;;;;48.70;34.30;;;7.70;99.90;;;;;;5069529;28;20071;-83
2021/05/20 04:40:47;;;;;;;34.55;27.25;;;7.80;99.90;;;;;;5067587;28;20053;-82
2021/05/20 04:43:13;;;;;;;25.92;22.60;;;7.90;99.90;;;;;;5042524;28;20080;-82
2021/05/20 04:45:39;;;;;;;28.80;24.38;;;8.00;99.90;;;;;;5061316;28;20041;-83
2021/05/20 04:48:05;;;;;;;25.70;22.90;;;8.10;99.90;;;;;;5050525;28;20492;-82
2021/05/20 04:50:31;;;;;;;27.67;24.13;;;8.10;99.90;;;;;;5048977;28;20056;-82
2021/05/20 04:52:57;;;;;;;25.35;22.25;;;8.20;99.90;;;;;;5052167;28;20049;-81
2021/05/20 04:55:23;;;;;;;41.97;32.65;;;8.20;99.90;;;;;;5034408;28;20480;-81
2021/05/20 04:57:49;;;;;;;33.40;29.75;;;8.20;99.90;;;;;;5054555;28;20055;-82
2021/05/20 05:00:15;;;;;;;28.58;24.60;;;8.30;99.90;;;;;;5051508;28;20155;-82
2021/05/20 05:02:41;;;;;;;27.33;24.27;;;8.40;99.90;;;;;;5051289;28;20440;-82
2021/05/20 05:05:08;;;;;;;31.17;25.33;;;8.40;99.90;;;;;;5049735;28;20049;-82
2021/05/20 05:07:34;;;;;;;33.63;30.02;;;8.50;99.90;;;;;;5050210;28;20108;-82
2021/05/20 05:10:00;;;;;;;30.17;26.95;;;8.60;99.90;;;;;;5049696;28;20489;-82
2021/05/20 05:12:26;;;;;;;32.85;27.80;;;8.70;99.90;;;;;;5050383;28;20132;-80
2021/05/20 05:14:53;;;;;;;29.83;26.25;;;8.80;99.90;;;;;;5051322;28;20053;-82
2021/05/20 05:17:19;;;;;;;31.15;26.67;;;9.10;99.90;;;;;;5051352;28;20060;-82
2021/05/20 05:19:45;;;;;;;31.33;25.05;;;9.00;99.90;;;;;;5032446;28;20155;-82
2021/05/20 05:22:10;;;;;;;29.13;24.33;;;9.10;99.90;;;;;;5049481;28;20485;-81
2021/05/20 05:24:36;;;;;;;27.85;24.88;;;9.20;99.90;;;;;;5032802;28;20457;-83
2021/05/20 05:27:04;;;;;;;30.20;25.23;;;9.30;99.90;;;;;;5055772;28;20048;-80
2021/05/20 05:29:32;;;;;;;29.63;26.38;;;9.40;99.90;;;;;;5034862;28;20060;-88
2021/05/20 05:31:58;;;;;;;28.55;25.45;;;9.60;99.90;;;;;;5051693;28;20048;-81
2021/05/20 05:34:23;;;;;;;32.28;26.52;;;9.40;99.90;;;;;;5051481;28;20121;-81
2021/05/20 05:36:49;;;;;;;31.15;25.17;;;9.50;99.90;;;;;;5048592;28;20576;-81
2021/05/20 05:39:15;;;;;;;28.05;25.02;;;9.70;99.90;;;;;;5050793;28;20061;-82
2021/05/20 05:41:41;;;;;;;31.42;26.52;;;9.70;99.90;;;;;;5072550;28;20060;-82
2021/05/20 05:44:07;;;;;;;26.42;23.58;;;9.90;99.90;;;;;;5077853;28;20055;-82
2021/05/20 05:46:33;;;;;;;27.00;23.08;;;10.00;99.90;;;;;;5071641;28;20040;-87
2021/05/20 05:49:10;;;;;;;26.25;22.30;;;10.10;99.90;;;;;;5069799;28;20036;-81
2021/05/20 05:51:37;;;;;;;26.90;22.73;;;10.20;99.90;;;;;;5069280;28;20584;-82
2021/05/20 05:54:04;;;;;;;21.70;19.40;;;10.40;99.90;;;;;;5046676;28;20056;-82
2021/05/20 05:56:30;;;;;;;23.10;19.65;;;10.40;99.90;;;;;;5054745;28;20041;-82
2021/05/20 05:58:56;;;;;;;21.45;18.95;;;10.50;99.90;;;;;;5069546;28;20139;-82
2021/05/20 06:01:22;;;;;;;20.92;18.65;;;10.60;99.90;;;;;;5071598;28;20059;-82
2021/05/20 06:03:47;;;;;;;18.42;16.42;;;10.60;99.90;;;;;;5068874;28;20468;-82
2021/05/20 06:06:13;;;;;;;17.23;15.52;;;10.60;99.90;;;;;;5078059;28;20083;-82
2021/05/20 06:08:39;;;;;;;22.85;17.30;;;10.60;99.90;;;;;;5068885;28;20131;-82
2021/05/20 06:11:05;;;;;;;15.65;13.95;;;10.70;99.90;;;;;;5052737;28;20055;-81
2021/05/20 06:13:30;;;;;;;18.55;16.55;;;10.80;99.90;;;;;;5052091;28;20412;-81
2021/05/20 06:15:56;;;;;;;19.27;16.63;;;10.80;99.90;;;;;;5052202;28;20112;-81
2021/05/20 06:18:22;;;;;;;19.33;15.88;;;11.00;99.90;;;;;;5084302;28;20459;-81
2021/05/20 06:20:49;;;;;;;15.50;14.00;;;11.00;99.90;;;;;;5068583;28;20064;-83
2021/05/20 06:23:16;;;;;;;15.98;13.68;;;11.10;99.90;;;;;;5051800;28;20130;-82
2021/05/20 06:25:44;;;;;;;16.05;14.05;;;11.20;99.80;;;;;;5069555;28;20082;-84
2021/05/20 06:28:10;;;;;;;15.52;12.85;;;11.30;99.80;;;;;;5052009;28;20044;-81
2021/05/20 06:30:37;;;;;;;15.95;13.25;;;11.30;99.20;;;;;;5066613;28;20110;-84
2021/05/20 06:33:03;;;;;;;16.40;12.82;;;11.50;99.00;;;;;;5063285;28;20057;-88
2021/05/20 06:35:29;;;;;;;15.48;12.93;;;11.50;99.20;;;;;;5049224;28;20079;-88
2021/05/20 06:37:54;;;;;;;16.15;13.27;;;11.50;99.20;;;;;;5051940;28;20076;-88
2021/05/20 06:40:20;;;;;;;13.70;12.18;;;11.50;98.80;;;;;;5051680;28;20387;-86
2021/05/20 06:42:46;;;;;;;11.95;10.85;;;11.60;98.90;;;;;;5052508;28;20068;-90
2021/05/20 06:45:13;;;;;;;12.10;10.85;;;11.70;98.40;;;;;;5030016;28;20424;-89
2021/05/20 06:47:39;;;;;;;13.90;10.93;;;11.90;98.20;;;;;;5048958;28;20045;-85
2021/05/20 06:50:06;;;;;;;12.60;10.05;;;11.90;98.10;;;;;;5050321;28;20056;-87
2021/05/20 06:52:32;;;;;;;10.63;9.48;;;12.00;97.80;;;;;;5027595;28;20050;-86
2021/05/20 06:54:58;;;;;;;11.05;9.93;;;12.00;97.60;;;;;;5030153;28;20052;-86
2021/05/20 06:57:29;;;;;;;11.13;9.57;;;12.50;97.90;;;;;;5052158;28;20401;-85
2021/05/20 07:00:01;;;;;;;10.63;9.25;;;12.50;97.70;;;;;;5029300;28;20124;-83
2021/05/20 07:02:29;;;;;;;10.75;9.07;;;12.20;96.70;;;;;;5077285;28;20072;-88
2021/05/20 07:04:56;;;;;;;10.82;9.63;;;12.30;96.80;;;;;;5045489;28;20055;-84
2021/05/20 07:07:23;;;;;;;10.52;8.85;;;12.50;96.40;;;;;;5035172;28;20079;-85
2021/05/20 07:09:49;;;;;;;10.95;9.43;;;12.50;95.80;;;;;;5056277;28;20049;-86
2021/05/20 07:12:16;;;;;;;11.45;9.98;;;12.80;96.40;;;;;;5063096;28;29604;-84
2021/05/20 07:14:45;;;;;;;11.57;10.23;;;12.20;96.10;;;;;;5030383;28;20049;-84
2021/05/20 07:17:11;;;;;;;10.85;9.27;;;12.90;96.80;;;;;;5025420;28;20053;-86
2021/05/20 07:19:37;;;;;;;10.00;8.95;;;12.40;96.50;;;;;;5014376;28;20071;-87
2021/05/20 07:22:04;;;;;;;9.82;8.57;;;12.50;95.70;;;;;;5021769;28;20063;-85
2021/05/20 07:24:31;;;;;;;9.85;8.85;;;12.40;95.10;;;;;;5028843;28;20052;-84
2021/05/20 07:26:57;;;;;;;9.45;8.45;;;12.30;95.50;;;;;;5046197;28;20047;-85
2021/05/20 07:29:23;;;;;;;12.07;9.65;;;12.30;95.40;;;;;;5046976;28;20045;-84
2021/05/20 07:31:50;;;;;;;10.13;9.02;;;12.40;95.40;;;;;;5048068;28;20048;-84
2021/05/20 07:34:16;;;;;;;9.15;7.88;;;12.50;94.80;;;;;;5047154;28;20103;-84
2021/05/20 07:36:42;;;;;;;10.07;8.65;;;12.70;93.90;;;;;;5044351;28;20056;-83
2021/05/20 07:39:08;;;;;;;10.02;7.88;;;12.80;94.10;;;;;;5052998;28;20448;-83
2021/05/20 07:41:34;;;;;;;9.32;7.80;;;13.00;93.50;;;;;;5059372;28;20155;-88
2021/05/20 07:44:02;;;;;;;10.30;8.50;;;13.10;93.50;;;;;;5067674;28;20048;-84
2021/05/20 07:46:27;;;;;;;10.45;7.90;;;13.20;93.00;;;;;;5073639;28;20438;-83
2021/05/20 07:48:53;;;;;;;9.70;7.85;;;13.40;92.90;;;;;;5066954;28;20040;-83
2021/05/20 07:51:19;;;;;;;8.57;7.60;;;13.40;93.00;;;;;;5066919;28;20072;-83
2021/05/20 07:53:45;;;;;;;9.05;7.25;;;13.50;92.10;;;;;;5066348;28;20045;-82
2021/05/20 07:56:11;;;;;;;11.82;10.43;;;13.50;92.20;;;;;;5063384;28;20045;-84
2021/05/20 07:58:37;;;;;;;11.20;7.88;;;13.50;91.80;;;;;;5065312;28;20044;-85
2021/05/20 08:01:04;;;;;;;11.75;7.70;;;13.60;92.50;;;;;;5044505;28;20051;-85
2021/05/20 08:03:42;;;;;;;8.43;7.10;;;13.80;92.60;;;;;;5065139;28;20124;-83
2021/05/20 08:06:21;;;;;;;12.52;7.75;;;13.80;90.70;;;;;;5055688;28;20136;-86
2021/05/20 08:09:01;;;;;;;7.63;6.70;;;13.90;91.40;;;;;;5048003;28;20052;-84
2021/05/20 08:11:26;;;;;;;8.23;6.47;;;14.00;90.80;;;;;;5048298;28;20057;-83
2021/05/20 08:13:52;;;;;;;10.00;7.60;;;14.20;90.40;;;;;;5049293;28;20352;-86
2021/05/20 08:16:19;;;;;;;7.70;6.75;;;14.30;90.70;;;;;;5083044;28;20121;-84
2021/05/20 08:18:45;;;;;;;8.23;5.93;;;14.30;91.10;;;;;;5074016;28;20058;-84
2021/05/20 08:21:11;;;;;;;8.07;6.10;;;14.20;89.20;;;;;;5090099;28;20041;-83
2021/05/20 08:23:37;;;;;;;7.53;6.43;;;13.90;90.10;;;;;;5051173;28;20412;-88
2021/05/20 08:26:05;;;;;;;7.60;6.70;;;14.00;90.40;;;;;;5075779;28;20051;-83
2021/05/20 08:28:30;;;;;;;6.82;6.10;;;14.20;89.80;;;;;;5051118;28;20045;-83
2021/05/20 08:30:56;;;;;;;7.43;6.53;;;14.50;90.50;;;;;;5064016;28;20040;-85
2021/05/20 08:33:22;;;;;;;7.22;6.28;;;14.80;90.60;;;;;;5078907;28;20048;-84
2021/05/20 08:35:48;;;;;;;7.10;6.40;;;14.90;87.60;;;;;;5070248;28;20055;-84
2021/05/20 08:38:14;;;;;;;6.63;5.93;;;14.70;86.60;;;;;;5034041;28;20485;-84
2021/05/20 08:40:44;;;;;;;6.38;5.78;;;14.70;89.60;;;;;;5047842;28;20074;-84
2021/05/20 08:43:09;;;;;;;8.20;5.97;;;14.90;85.10;;;;;;5068760;28;20117;-85
2021/05/20 08:45:37;;;;;;;7.90;6.47;;;14.90;86.30;;;;;;5060786;28;20127;-87
2021/05/20 08:48:03;;;;;;;5.78;4.63;;;14.90;87.10;;;;;;5082409;28;20048;-84
2021/05/20 08:50:31;;;;;;;5.95;5.10;;;15.10;85.00;;;;;;5058341;28;20135;-83
2021/05/20 08:52:58;;;;;;;5.53;4.85;;;15.10;85.40;;;;;;5075341;28;20171;-84
2021/05/20 08:55:27;;;;;;;7.25;4.80;;;15.30;86.00;;;;;;5087490;28;20082;-85
2021/05/20 08:57:55;;;;;;;5.43;4.88;;;15.60;86.60;;;;;;5051027;28;20113;-85
2021/05/20 09:00:22;;;;;;;6.60;4.60;;;15.80;85.70;;;;;;5067651;28;20051;-85
2021/05/20 09:02:51;;;;;;;5.53;4.85;;;16.00;84.60;;;;;;5050255;28;20518;-85
2021/05/20 09:05:20;;;;;;;7.85;4.95;;;16.00;81.20;;;;;;5067094;28;20052;-85
2021/05/20 09:07:50;;;;;;;6.30;4.65;;;15.90;83.40;;;;;;5056492;28;20056;-85
2021/05/20 09:10:20;;;;;;;3.72;3.33;;;16.00;83.00;;;;;;5064716;28;20544;-85
2021/05/20 09:12:52;;;;;;;5.88;5.05;;;15.90;80.30;;;;;;5083938;28;20068;-84
2021/05/20 09:15:21;;;;;;;5.30;4.72;;;15.70;82.20;;;;;;5067260;28;20135;-86
2021/05/20 09:17:48;;;;;;;6.45;5.00;;;15.50;83.20;;;;;;5051213;28;20094;-85
2021/05/20 09:20:14;;;;;;;4.95;4.43;;;15.60;82.90;;;;;;5051693;28;20049;-83
2021/05/20 09:22:41;;;;;;;6.18;4.90;;;15.70;82.20;;;;;;5064410;28;20048;-83
2021/05/20 09:25:08;;;;;;;7.45;5.03;;;15.80;82.60;;;;;;5084849;28;20199;-84
2021/05/20 09:27:45;;;;;;;5.18;4.15;;;16.00;84.20;;;;;;5077250;28;20123;-89
2021/05/20 09:30:28;;;;;;;4.72;4.22;;;16.30;82.30;;;;;;5084602;28;20052;-85
2021/05/20 09:33:00;;;;;;;5.72;3.95;;;16.40;79.00;;;;;;5078773;28;20056;-85
2021/05/20 09:35:34;;;;;;;5.63;4.20;;;16.40;78.40;;;;;;5073539;28;20110;-81
2021/05/20 09:38:18;;;;;;;5.32;4.07;;;16.50;78.50;;;;;;5068197;28;20049;-88
2021/05/20 09:40:57;;;;;;;4.53;3.75;;;16.70;76.00;;;;;;5066601;28;20052;-85
2021/05/20 09:43:29;;;;;;;4.60;4.10;;;16.80;75.70;;;;;;5054063;28;20087;-84
2021/05/20 09:45:55;;;;;;;6.20;4.70;;;17.00;76.60;;;;;;5067534;28;20053;-86
2021/05/20 09:48:25;;;;;;;5.35;4.10;;;17.10;75.30;;;;;;5050600;28;20127;-84
2021/05/20 09:50:53;;;;;;;4.78;4.22;;;17.00;75.40;;;;;;5051861;28;20060;-85
2021/05/20 09:53:22;;;;;;;4.75;3.72;;;16.70;76.90;;;;;;5071290;28;20503;-85
2021/05/20 09:55:53;;;;;;;4.45;3.75;;;16.70;75.10;;;;;;5061219;28;20045;-85
2021/05/20 09:58:21;;;;;;;5.05;3.65;;;16.80;76.40;;;;;;5067906;28;20393;-85
2021/05/20 10:00:49;;;;;;;4.35;3.63;;;17.10;75.70;;;;;;5064893;28;20140;-85
2021/05/20 10:03:17;;;;;;;4.60;2.88;;;17.10;74.40;;;;;;5058648;28;20044;-84
2021/05/20 10:05:48;;;;;;;4.38;3.20;;;17.30;74.20;;;;;;5084684;28;20126;-85
2021/05/20 10:08:16;;;;;;;5.25;3.55;;;17.40;73.70;;;;;;5052014;28;20488;-84
2021/05/20 10:10:47;;;;;;;4.18;3.78;;;17.40;74.20;;;;;;5067918;28;20036;-84
2021/05/20 10:13:16;;;;;;;4.25;3.10;;;17.10;75.90;;;;;;5049458;28;20123;-85
2021/05/20 10:15:42;;;;;;;4.45;3.22;;;17.20;75.40;;;;;;5065005;28;20057;-85
2021/05/20 10:18:11;;;;;;;3.67;2.95;;;16.90;77.20;;;;;;5055661;28;20105;-83
2021/05/20 10:20:39;;;;;;;2.53;2.33;;;17.00;75.00;;;;;;5034686;28;20048;-88
2021/05/20 10:23:14;;;;;;;4.03;2.28;;;17.00;73.00;;;;;;5038003;28;20141;-85
2021/05/20 10:25:43;;;;;;;3.40;2.35;;;17.10;71.20;;;;;;5064669;28;20135;-85
2021/05/20 10:28:12;;;;;;;2.97;2.28;;;16.80;73.20;;;;;;5049616;28;20048;-85
2021/05/20 10:30:41;;;;;;;3.70;2.60;;;16.80;74.30;;;;;;5049595;28;20128;-90
2021/05/20 10:33:08;;;;;;;2.80;2.35;;;16.90;74.10;;;;;;5040570;28;20389;-86
2021/05/20 10:35:51;;;;;;;4.05;2.42;;;17.10;76.70;;;;;;5031065;28;20044;-86
2021/05/20 10:38:28;;;;;;;5.05;3.13;;;17.20;71.40;;;;;;5059522;28;20526;-84
2021/05/20 10:41:12;;;;;;;3.45;2.50;;;17.40;70.30;;;;;;5067911;28;20051;-86
2021/05/20 10:43:40;;;;;;;4.40;2.58;;;17.60;70.50;;;;;;5051957;28;20052;-90
2021/05/20 10:46:07;;;;;;;3.03;2.05;;;17.70;69.30;;;;;;5067055;28;20109;-84
2021/05/20 10:48:36;;;;;;;5.25;3.35;;;17.90;67.40;;;;;;5067271;28;20040;-85
2021/05/20 10:51:16;;;;;;;6.88;2.80;;;17.70;68.50;;;;;;5068405;28;20055;-84
2021/05/20 10:54:09;;;;;;;6.60;3.22;;;17.70;67.50;;;;;;5048137;28;20068;-85
2021/05/20 10:56:56;;;;;;;3.50;2.60;;;17.70;69.40;;;;;;5023992;28;20052;-85
2021/05/20 10:59:40;;;;;;;5.03;3.70;;;18.30;73.10;;;;;;5050948;28;20056;-84
2021/05/20 11:02:13;;;;;;;4.00;2.95;;;18.60;68.90;;;;;;5055836;28;20538;-84
2021/05/20 11:04:41;;;;;;;2.55;2.30;;;18.70;66.20;;;;;;5069925;28;20082;-87
2021/05/20 11:07:07;;;;;;;4.68;3.40;;;18.60;66.70;;;;;;5066449;28;20067;-83
2021/05/20 11:09:47;;;;;;;4.95;2.63;;;18.50;67.30;;;;;;5050214;28;20048;-84
2021/05/20 11:12:13;;;;;;;3.40;1.98;;;18.40;64.20;;;;;;5068572;28;20049;-83
2021/05/20 11:14:40;;;;;;;6.07;3.33;;;18.40;62.20;;;;;;5067249;28;20048;-90
2021/05/20 11:17:43;;;;;;;4.40;3.20;;;18.40;65.90;;;;;;5067342;28;20106;-84
2021/05/20 11:20:24;;;;;;;5.78;4.30;;;18.60;65.20;;;;;;5053511;28;20045;-84
2021/05/20 11:23:17;;;;;;;5.10;3.72;;;18.30;65.60;;;;;;5067778;28;20068;-83
2021/05/20 11:25:44;;;;;;;6.25;4.20;;;17.80;69.00;;;;;;5048280;28;20064;-84
2021/05/20 11:28:10;;;;;;;4.72;3.58;;;17.70;68.20;;;;;;5066828;28;20094;-83
2021/05/20 11:30:37;;;;;;;4.80;3.15;;;17.80;67.50;;;;;;5067143;28;20143;-83
2021/05/20 11:33:04;;;;;;;6.15;2.28;;;18.10;69.50;;;;;;5067559;28;20492;-83
2021/05/20 11:35:43;;;;;;;5.40;2.30;;;18.50;67.00;;;;;;5050506;28;20481;-83
2021/05/20 11:38:26;;;;;;;6.40;3.28;;;18.70;63.40;;;;;;5049565;28;20412;-84
2021/05/20 11:40:53;;;;;;;5.32;2.92;;;18.40;64.80;;;;;;5068494;28;20049;-83
2021/05/20 11:43:29;;;;;;;4.03;3.03;;;18.20;67.50;;;;;;5072962;28;20055;-83
2021/05/20 11:45:55;;;;;;;5.38;3.50;;;18.40;68.90;;;;;;5072451;28;20048;-83
2021/05/20 11:48:21;;;;;;;5.20;3.63;;;18.50;66.70;;;;;;5074393;28;20047;-85
2021/05/20 11:50:51;;;;;;;7.40;4.15;;;18.60;65.00;;;;;;5098357;28;20051;-85
2021/05/20 11:53:17;;;;;;;3.97;3.10;;;18.70;67.30;;;;;;5076006;28;20048;-85
2021/05/20 11:55:45;;;;;;;3.58;3.28;;;19.00;69.90;;;;;;5053986;28;20136;-87
2021/05/20 11:58:11;;;;;;;5.10;3.38;;;19.40;67.80;;;;;;5069754;28;20059;-85
2021/05/20 12:00:37;;;;;;;5.93;4.18;;;19.70;67.90;;;;;;5084543;28;20131;-85
2021/05/20 12:03:04;;;;;;;5.95;4.07;;;20.20;63.40;;;;;;5078175;28;20055;-85
2021/05/20 12:05:30;;;;;;;5.28;4.05;;;19.40;63.10;;;;;;5095935;28;20040;-83
2021/05/20 12:07:56;;;;;;;5.88;4.50;;;19.10;64.50;;;;;;5088615;28;20535;-86
2021/05/20 12:10:23;;;;;;;6.75;3.20;;;18.90;65.00;;;;;;5084660;28;20131;-88
2021/05/20 12:12:56;;;;;;;4.10;3.00;;;19.00;67.00;;;;;;5084043;28;20114;-88
2021/05/20 12:15:25;;;;;;;6.25;3.13;;;19.50;66.30;;;;;;5072229;28;20064;-88
2021/05/20 12:17:51;;;;;;;3.72;2.97;;;19.80;63.60;;;;;;5079114;28;20383;-88
2021/05/20 12:20:21;;;;;;;3.42;2.97;;;19.70;61.80;;;;;;5060078;28;20438;-88
2021/05/20 12:22:48;;;;;;;5.22;4.00;;;19.80;62.00;;;;;;5084279;28;20067;-87
2021/05/20 12:25:16;;;;;;;3.95;3.30;;;19.70;61.50;;;;;;5054594;28;20072;-84
2021/05/20 12:27:48;;;;;;;5.25;3.38;;;19.80;64.40;;;;;;5069938;28;20140;-89
2021/05/20 12:30:38;;;;;;;5.13;3.40;;;20.10;60.10;;;;;;5070147;28;20127;-84
2021/05/20 12:33:04;;;;;;;4.70;3.58;;;20.10;61.00;;;;;;5054505;28;20048;-84
2021/05/20 12:35:43;;;;;;;4.75;3.47;;;20.10;60.40;;;;;;5071629;28;20064;-83
2021/05/20 12:38:22;;;;;;;4.57;3.30;;;20.10;62.10;;;;;;5076913;28;20079;-83
2021/05/20 12:40:48;;;;;;;5.60;3.08;;;20.50;62.20;;;;;;5080925;28;20036;-84
2021/05/20 12:43:19;;;;;;;4.13;2.72;;;20.50;58.30;;;;;;5045273;28;20396;-83